Time;durP1;ratioP1;P1;durP2;ratioP2;P2;SDS_P1;SDS_P2;PMS_P1;PMS_P2;Temp;Humidity;BMP_temperature;BMP_pressure;BME280_temperature;BME280_humidity;BME280_pressure;Samples;Min_cycle;Max_cycle;Signal;HPM_P1;HPM_P2
2023/01/21 00:02:11;;;;;;;2.40;2.20;;;1.30;99.90;;;;;;5026131;28;20037;-64
2023/01/21 00:04:37;;;;;;;1.77;1.70;;;1.30;99.90;;;;;;5029877;28;20037;-64
2023/01/21 00:07:06;;;;;;;0.40;0.40;;;1.20;99.90;;;;;;5010758;28;20104;-64
2023/01/21 00:09:32;;;;;;;2.45;1.10;;;1.20;99.90;;;;;;5027529;28;20042;-64
2023/01/21 00:12:01;;;;;;;0.40;0.40;;;1.20;99.90;;;;;;5022604;28;20049;-64
2023/01/21 00:14:28;;;;;;;0.43;0.43;;;1.20;99.90;;;;;;5025824;28;20493;-64
2023/01/21 00:16:54;;;;;;;1.35;1.25;;;1.10;99.90;;;;;;5030316;28;20056;-64
2023/01/21 00:19:19;;;;;;;0.17;0.17;;;1.00;99.90;;;;;;5026986;28;20038;-64
2023/01/21 00:21:45;;;;;;;0.50;0.50;;;1.00;99.90;;;;;;5031354;28;20099;-64
2023/01/21 00:24:11;;;;;;;6.32;2.00;;;1.00;99.90;;;;;;5010783;28;20060;-65
2023/01/21 00:26:36;;;;;;;0.30;0.30;;;0.90;99.90;;;;;;5031504;28;20111;-64
2023/01/21 00:29:02;;;;;;;0.20;0.20;;;0.90;99.90;;;;;;5029198;28;20041;-65
2023/01/21 00:31:28;;;;;;;1.52;1.45;;;0.90;99.90;;;;;;5030741;28;20045;-65
2023/01/21 00:33:53;;;;;;;2.58;1.75;;;0.90;99.90;;;;;;5025702;28;20041;-65
2023/01/21 00:36:21;;;;;;;4.47;2.45;;;0.90;99.90;;;;;;5030731;28;20053;-65
2023/01/21 00:38:50;;;;;;;0.95;0.95;;;0.90;99.90;;;;;;5029353;28;20049;-65
2023/01/21 00:41:16;;;;;;;0.68;0.65;;;0.90;99.90;;;;;;5012373;28;20061;-65
2023/01/21 00:43:42;;;;;;;0.32;0.32;;;0.90;99.90;;;;;;5030518;28;20112;-64
2023/01/21 00:46:09;;;;;;;3.90;3.03;;;0.90;99.90;;;;;;5028886;28;20049;-64
2023/01/21 00:48:35;;;;;;;0.75;0.75;;;0.90;99.90;;;;;;5030398;28;20087;-65
2023/01/21 00:51:01;;;;;;;0.47;0.47;;;0.90;99.90;;;;;;5027742;28;20049;-64
2023/01/21 00:53:29;;;;;;;2.00;1.45;;;0.90;99.90;;;;;;5012396;28;20049;-65
2023/01/21 00:55:59;;;;;;;1.73;1.58;;;0.90;99.90;;;;;;5028931;28;20444;-64
2023/01/21 00:58:25;;;;;;;1.10;1.10;;;0.80;99.90;;;;;;5029318;28;20132;-65
2023/01/21 01:01:03;;;;;;;0.20;0.20;;;0.80;99.90;;;;;;5031111;28;20457;-65
2023/01/21 01:03:29;;;;;;;0.35;0.35;;;0.90;99.90;;;;;;5030347;28;20041;-65
2023/01/21 01:06:03;;;;;;;0.40;0.40;;;0.70;99.90;;;;;;5029613;28;20037;-64
2023/01/21 01:08:28;;;;;;;0.73;0.70;;;0.70;99.90;;;;;;5030253;28;20041;-65
2023/01/21 01:10:54;;;;;;;1.05;1.02;;;0.80;99.90;;;;;;5028800;28;20041;-64
2023/01/21 01:13:19;;;;;;;0.47;0.47;;;0.80;99.90;;;;;;5030277;28;20072;-64
2023/01/21 01:15:46;;;;;;;0.68;0.52;;;0.80;99.90;;;;;;5029493;28;20136;-64
2023/01/21 01:18:11;;;;;;;0.47;0.47;;;0.80;99.90;;;;;;5030522;28;20511;-64
2023/01/21 01:20:41;;;;;;;1.05;1.05;;;0.90;99.90;;;;;;5029874;28;20045;-64
2023/01/21 01:23:07;;;;;;;3.38;1.85;;;0.80;99.90;;;;;;5028778;28;20045;-64
2023/01/21 01:25:33;;;;;;;1.00;1.00;;;0.80;99.90;;;;;;5029683;28;20373;-64
2023/01/21 01:27:59;;;;;;;1.60;1.50;;;0.80;99.90;;;;;;5027755;28;20120;-65
2023/01/21 01:30:24;;;;;;;1.10;1.08;;;0.80;99.90;;;;;;5030142;28;20604;-65
2023/01/21 01:32:50;;;;;;;0.50;0.50;;;0.70;99.90;;;;;;5010202;28;20055;-64
2023/01/21 01:35:15;;;;;;;1.45;1.40;;;0.80;99.90;;;;;;5028612;28;20052;-65
2023/01/21 01:37:41;;;;;;;0.68;0.68;;;0.70;99.90;;;;;;5014639;28;20045;-64
2023/01/21 01:40:09;;;;;;;9.73;3.83;;;0.60;99.90;;;;;;5026417;28;20041;-64
2023/01/21 01:42:35;;;;;;;1.40;1.35;;;0.60;99.90;;;;;;5027928;28;20503;-64
2023/01/21 01:45:04;;;;;;;1.73;1.63;;;0.50;99.90;;;;;;5030108;28;20049;-64
2023/01/21 01:47:56;;;;;;;2.50;2.20;;;0.60;99.90;;;;;;5028124;28;20056;-64
2023/01/21 01:50:27;;;;;;;0.93;0.93;;;0.60;99.90;;;;;;5028744;28;20057;-64
2023/01/21 01:52:53;;;;;;;3.50;1.42;;;0.60;99.90;;;;;;5030162;28;20049;-64
2023/01/21 01:55:19;;;;;;;0.30;0.30;;;0.60;99.90;;;;;;5027443;28;20046;-64
2023/01/21 01:57:50;;;;;;;0.65;0.65;;;0.60;99.90;;;;;;5029472;28;20401;-64
2023/01/21 02:00:16;;;;;;;1.98;1.88;;;0.60;99.90;;;;;;5026817;28;20417;-64
2023/01/21 02:03:43;;;;;;;0.52;0.52;;;0.70;99.90;;;;;;5025467;28;20049;-64
2023/01/21 02:05:28;;;;;;;0.40;0.40;;;0.70;99.90;;;;;;5028999;28;20112;-64
2023/01/21 02:07:55;;;;;;;0.40;0.40;;;0.70;99.90;;;;;;5010131;28;20140;-64
2023/01/21 02:10:21;;;;;;;0.60;0.60;;;0.70;99.90;;;;;;5029471;28;20496;-64
2023/01/21 02:12:46;;;;;;;2.13;2.03;;;0.70;99.90;;;;;;5021912;28;20076;-64
2023/01/21 02:15:12;;;;;;;4.68;2.30;;;0.70;99.90;;;;;;5029538;28;20049;-64
2023/01/21 02:18:06;;;;;;;0.22;0.22;;;0.70;99.90;;;;;;5029984;28;20455;-64
2023/01/21 02:20:54;;;;;;;0.40;0.40;;;0.70;99.90;;;;;;5026721;28;20404;-64
2023/01/21 02:23:50;;;;;;;0.82;0.82;;;0.60;99.90;;;;;;5006033;28;20501;-65
2023/01/21 02:26:53;;;;;;;0.60;0.60;;;0.70;99.90;;;;;;5017977;28;20128;-64
2023/01/21 02:29:32;;;;;;;0.60;0.60;;;0.60;99.90;;;;;;5027198;28;20469;-64
2023/01/21 02:32:16;;;;;;;1.88;1.10;;;0.60;99.90;;;;;;5028560;28;20049;-64
2023/01/21 02:34:56;;;;;;;1.08;1.08;;;0.60;99.90;;;;;;5029869;28;20417;-65
2023/01/21 02:37:39;;;;;;;2.75;2.55;;;0.60;99.90;;;;;;5025500;28;20045;-64
2023/01/21 02:40:18;;;;;;;0.43;0.43;;;0.60;99.90;;;;;;5029440;28;20033;-64
2023/01/21 02:43:08;;;;;;;0.40;0.40;;;0.60;99.90;;;;;;5008615;28;20552;-64
2023/01/21 02:45:58;;;;;;;0.30;0.30;;;0.60;99.90;;;;;;5028088;28;20050;-65
2023/01/21 02:48:46;;;;;;;0.82;0.82;;;0.60;99.90;;;;;;5028739;28;20091;-65
2023/01/21 02:51:12;;;;;;;0.80;0.80;;;0.60;99.90;;;;;;5029479;28;20045;-64
2023/01/21 02:53:38;;;;;;;1.60;0.85;;;0.50;99.90;;;;;;5027896;28;20388;-64
2023/01/21 02:56:17;;;;;;;0.90;0.90;;;0.50;99.90;;;;;;5028716;28;20462;-64
2023/01/21 02:58:48;;;;;;;1.95;1.75;;;0.50;99.90;;;;;;5002084;28;20457;-64
2023/01/21 03:01:38;;;;;;;3.28;2.95;;;0.60;99.90;;;;;;5023275;28;20041;-64
2023/01/21 03:04:20;;;;;;;1.33;1.30;;;0.60;99.90;;;;;;5028450;28;20041;-64
2023/01/21 03:06:58;;;;;;;4.65;3.65;;;0.60;99.90;;;;;;5027852;28;20088;-64
2023/01/21 03:09:29;;;;;;;5.55;2.38;;;0.60;99.90;;;;;;5028635;28;20083;-64
2023/01/21 03:12:07;;;;;;;4.47;4.07;;;0.70;99.90;;;;;;5027853;28;20037;-64
2023/01/21 03:17:33;;;;;;;0.43;0.43;;;0.60;99.90;;;;;;5032178;28;20056;-64
2023/01/21 03:20:11;;;;;;;4.15;1.80;;;0.60;99.90;;;;;;5030850;28;20041;-64
2023/01/21 03:22:37;;;;;;;0.22;0.22;;;0.50;99.90;;;;;;5029588;28;20044;-64
2023/01/21 03:25:06;;;;;;;0.55;0.55;;;0.40;99.90;;;;;;5032333;28;20124;-64
2023/01/21 03:27:33;;;;;;;3.13;1.05;;;0.50;99.90;;;;;;5031596;28;20077;-65
2023/01/21 03:30:21;;;;;;;1.38;1.23;;;0.60;99.90;;;;;;5030597;28;20033;-65
2023/01/21 03:32:50;;;;;;;2.08;1.75;;;0.60;99.90;;;;;;5024579;28;20088;-64
2023/01/21 03:35:22;;;;;;;1.75;1.65;;;0.50;99.90;;;;;;5032045;28;20401;-64
2023/01/21 03:38:30;;;;;;;0.20;0.20;;;0.40;99.90;;;;;;5032737;28;20087;-65
2023/01/21 03:41:06;;;;;;;0.60;0.60;;;0.30;99.90;;;;;;4950109;28;20549;-65
2023/01/21 03:43:32;;;;;;;5.65;1.60;;;0.40;99.90;;;;;;5020555;28;20072;-64
2023/01/21 03:46:16;;;;;;;1.60;1.55;;;0.50;99.90;;;;;;5030902;28;20041;-64
2023/01/21 03:48:53;;;;;;;1.45;1.42;;;0.50;99.90;;;;;;5027457;28;20473;-64
2023/01/21 03:51:22;;;;;;;3.38;1.00;;;0.50;99.90;;;;;;5031173;28;20054;-65
2023/01/21 03:53:55;;;;;;;0.73;0.65;;;0.60;99.90;;;;;;5030086;28;20053;-64
2023/01/21 03:56:20;;;;;;;2.15;2.05;;;0.60;99.90;;;;;;5031710;28;20493;-64
2023/01/21 03:58:46;;;;;;;2.08;1.98;;;0.60;99.90;;;;;;5030206;28;20049;-64
2023/01/21 04:01:11;;;;;;;0.77;0.77;;;0.70;99.90;;;;;;5029441;28;20481;-64
2023/01/21 04:03:37;;;;;;;0.65;0.65;;;0.70;99.90;;;;;;5026332;28;20041;-65
2023/01/21 04:06:03;;;;;;;0.40;0.40;;;0.60;99.90;;;;;;5029695;28;20037;-64
2023/01/21 04:08:28;;;;;;;0.55;0.55;;;0.50;99.90;;;;;;5012949;28;20103;-65
2023/01/21 04:10:54;;;;;;;1.88;1.35;;;0.50;99.90;;;;;;5030622;28;20045;-64
2023/01/21 04:13:20;;;;;;;0.60;0.60;;;0.50;99.90;;;;;;5029995;28;20053;-64
2023/01/21 04:15:45;;;;;;;1.08;1.08;;;0.50;99.90;;;;;;5028611;28;20049;-65
2023/01/21 04:18:11;;;;;;;1.52;0.68;;;0.50;99.90;;;;;;5028922;28;20481;-64
2023/01/21 04:20:36;;;;;;;0.57;0.57;;;0.40;99.90;;;;;;5027148;28;20048;-64
2023/01/21 04:23:02;;;;;;;3.95;3.58;;;0.40;99.90;;;;;;5029134;28;20081;-65
2023/01/21 04:25:28;;;;;;;1.00;1.00;;;0.40;99.90;;;;;;5029840;28;20053;-64
2023/01/21 04:27:53;;;;;;;0.60;0.60;;;0.40;99.90;;;;;;5029046;28;20049;-65
2023/01/21 04:30:19;;;;;;;1.02;0.93;;;0.40;99.90;;;;;;5029738;28;20073;-65
2023/01/21 04:32:45;;;;;;;0.20;0.20;;;0.40;99.90;;;;;;5003096;28;20136;-64
2023/01/21 04:35:10;;;;;;;2.25;1.58;;;0.40;99.90;;;;;;5029511;28;20096;-65
2023/01/21 04:37:36;;;;;;;0.35;0.35;;;0.30;99.90;;;;;;5028873;28;20075;-65
2023/01/21 04:40:02;;;;;;;1.40;1.30;;;0.30;99.90;;;;;;5030903;28;20495;-65
2023/01/21 04:42:27;;;;;;;0.20;0.20;;;0.40;99.90;;;;;;5009977;28;20382;-65
2023/01/21 04:44:53;;;;;;;0.57;0.57;;;0.40;99.90;;;;;;5028453;28;20052;-65
2023/01/21 04:47:18;;;;;;;0.30;0.30;;;0.40;99.90;;;;;;5013057;28;20132;-65
2023/01/21 04:49:44;;;;;;;0.52;0.52;;;0.40;99.90;;;;;;5010324;28;20053;-65
2023/01/21 04:52:09;;;;;;;0.82;0.82;;;0.30;99.90;;;;;;5029790;28;20049;-65
2023/01/21 04:54:35;;;;;;;0.95;0.95;;;0.30;99.90;;;;;;5028319;28;20073;-64
2023/01/21 04:57:00;;;;;;;1.58;1.48;;;0.30;99.90;;;;;;5029348;28;20403;-64
2023/01/21 04:59:26;;;;;;;0.95;0.95;;;0.30;99.90;;;;;;5028694;28;20400;-64
2023/01/21 05:01:52;;;;;;;1.75;1.65;;;0.30;99.90;;;;;;5030933;28;20041;-64
2023/01/21 05:04:17;;;;;;;1.15;1.13;;;0.20;99.90;;;;;;5029618;28;20451;-64
2023/01/21 05:06:43;;;;;;;0.40;0.40;;;0.30;99.90;;;;;;5030877;28;20076;-64
2023/01/21 05:09:08;;;;;;;0.77;0.77;;;0.30;99.90;;;;;;5027140;28;20041;-64
2023/01/21 05:11:34;;;;;;;0.28;0.28;;;0.30;99.90;;;;;;5030215;28;20033;-64
2023/01/21 05:13:59;;;;;;;0.70;0.65;;;0.30;99.90;;;;;;5029518;28;20049;-64
2023/01/21 05:16:25;;;;;;;1.20;1.20;;;0.30;99.90;;;;;;5030574;28;20440;-64
2023/01/21 05:18:51;;;;;;;0.68;0.68;;;0.30;99.90;;;;;;5029363;28;20029;-64
2023/01/21 05:21:16;;;;;;;3.53;2.53;;;0.40;99.90;;;;;;5029754;28;20458;-64
2023/01/21 05:23:42;;;;;;;0.32;0.32;;;0.60;99.90;;;;;;5026709;28;20420;-65
2023/01/21 05:26:07;;;;;;;0.28;0.28;;;0.60;99.90;;;;;;5027874;28;20034;-64
2023/01/21 05:28:33;;;;;;;0.30;0.30;;;0.50;99.90;;;;;;5030031;28;20472;-64
2023/01/21 05:31:00;;;;;;;0.90;0.90;;;0.60;99.90;;;;;;5027932;28;20130;-64
2023/01/21 05:33:33;;;;;;;0.73;0.73;;;0.60;99.90;;;;;;5029885;28;20052;-64
2023/01/21 05:36:00;;;;;;;0.20;0.20;;;0.70;99.90;;;;;;5029753;28;20069;-64
2023/01/21 05:38:26;;;;;;;0.77;0.77;;;0.80;99.90;;;;;;5028461;28;20124;-64
2023/01/21 05:41:00;;;;;;;0.25;0.25;;;0.80;99.90;;;;;;5011820;28;20041;-65
2023/01/21 05:43:26;;;;;;;;;;;0.80;99.90;;;;;;5030444;28;20057;-64
2023/01/21 05:45:51;;;;;;;1.42;1.42;;;0.90;99.90;;;;;;5029149;28;19925;-64
2023/01/21 05:48:17;;;;;;;1.23;1.13;;;0.90;99.90;;;;;;5028721;28;20131;-64
2023/01/21 05:50:43;;;;;;;0.20;0.20;;;1.00;99.90;;;;;;5028167;28;20089;-64
2023/01/21 05:53:08;;;;;;;0.20;0.20;;;1.00;99.90;;;;;;5028319;28;20041;-64
2023/01/21 05:55:36;;;;;;;0.10;0.10;;;0.90;99.90;;;;;;5028175;28;20104;-64
2023/01/21 05:58:01;;;;;;;0.30;0.30;;;1.00;99.90;;;;;;5029639;28;20473;-64
2023/01/21 06:00:27;;;;;;;0.75;0.75;;;0.90;99.90;;;;;;5028047;28;20095;-64
2023/01/21 06:02:52;;;;;;;0.20;0.20;;;0.90;99.90;;;;;;5027073;28;20037;-64
2023/01/21 06:05:18;;;;;;;1.10;1.10;;;0.90;99.90;;;;;;5028105;28;20092;-64
2023/01/21 06:07:44;;;;;;;0.77;0.77;;;0.90;99.90;;;;;;5027134;28;20041;-64
2023/01/21 06:10:09;;;;;;;0.45;0.45;;;0.90;99.90;;;;;;5030154;28;20125;-64
2023/01/21 06:12:35;;;;;;;0.30;0.30;;;0.90;99.90;;;;;;5024953;28;20447;-63
2023/01/21 06:15:01;;;;;;;2.22;1.75;;;0.90;99.90;;;;;;5028586;28;20440;-64
2023/01/21 06:17:26;;;;;;;1.23;1.15;;;1.00;99.90;;;;;;5028812;28;20041;-64
2023/01/21 06:19:52;;;;;;;1.20;1.20;;;1.10;99.90;;;;;;5030004;28;20056;-64
2023/01/21 06:22:18;;;;;;;0.25;0.25;;;1.10;99.90;;;;;;5027379;28;20120;-64
2023/01/21 06:24:44;;;;;;;2.58;1.10;;;1.10;99.90;;;;;;5021617;28;20075;-64
2023/01/21 06:27:10;;;;;;;0.25;0.25;;;1.10;99.90;;;;;;5020440;28;20578;-64
2023/01/21 06:29:35;;;;;;;2.28;1.52;;;1.10;99.90;;;;;;5009370;28;20045;-64
2023/01/21 06:32:01;;;;;;;3.65;1.90;;;1.00;99.90;;;;;;5028047;28;20493;-64
2023/01/21 06:34:26;;;;;;;0.93;0.93;;;1.00;99.90;;;;;;5029318;28;20092;-64
2023/01/21 06:36:52;;;;;;;0.20;0.20;;;1.10;99.90;;;;;;5026537;28;20041;-64
2023/01/21 06:39:17;;;;;;;0.60;0.57;;;1.20;99.90;;;;;;5027141;28;20046;-64
2023/01/21 06:41:43;;;;;;;0.65;0.65;;;1.10;99.90;;;;;;5029381;28;20551;-64
2023/01/21 06:44:09;;;;;;;0.25;0.25;;;1.10;99.90;;;;;;5028308;28;20048;-64
2023/01/21 06:46:34;;;;;;;0.30;0.30;;;1.10;99.90;;;;;;5029238;28;20042;-64
2023/01/21 06:49:00;;;;;;;0.63;0.63;;;1.00;99.90;;;;;;5010848;28;20176;-63
2023/01/21 06:51:25;;;;;;;0.80;0.80;;;0.90;99.90;;;;;;5031921;28;20095;-64
2023/01/21 06:53:51;;;;;;;2.05;1.95;;;0.90;99.90;;;;;;5032769;28;20037;-63
2023/01/21 06:56:17;;;;;;;1.52;1.42;;;1.00;99.90;;;;;;5013656;28;20053;-63
2023/01/21 06:58:42;;;;;;;1.15;1.15;;;0.90;99.90;;;;;;5032468;28;20050;-63
2023/01/21 07:01:08;;;;;;;2.67;1.52;;;0.90;99.90;;;;;;5031315;28;20120;-63
2023/01/21 07:03:33;;;;;;;1.95;1.85;;;0.80;99.90;;;;;;5031299;28;20037;-63
2023/01/21 07:05:59;;;;;;;0.32;0.32;;;0.80;99.90;;;;;;5030936;28;20072;-64
2023/01/21 07:08:24;;;;;;;2.38;2.25;;;0.90;99.90;;;;;;5030501;28;20164;-64
2023/01/21 07:10:50;;;;;;;0.63;0.63;;;0.90;99.90;;;;;;5031838;28;20042;-64
2023/01/21 07:13:15;;;;;;;0.47;0.47;;;0.80;99.90;;;;;;5032075;28;20041;-64
2023/01/21 07:15:41;;;;;;;1.27;1.17;;;0.90;99.90;;;;;;5032788;28;20037;-64
2023/01/21 07:18:07;;;;;;;0.22;0.22;;;0.90;99.90;;;;;;5029393;28;20725;-64
2023/01/21 07:20:33;;;;;;;0.65;0.65;;;0.80;99.90;;;;;;5031738;28;20049;-63
2023/01/21 07:22:58;;;;;;;1.15;1.15;;;0.80;99.90;;;;;;5032999;28;20461;-64
2023/01/21 07:25:24;;;;;;;0.30;0.30;;;0.80;99.90;;;;;;5030141;28;20045;-64
2023/01/21 07:27:50;;;;;;;0.40;0.40;;;0.80;99.90;;;;;;5028268;28;20041;-64
2023/01/21 07:30:17;;;;;;;0.40;0.40;;;0.80;99.90;;;;;;5013047;28;20049;-64
2023/01/21 07:32:44;;;;;;;0.65;0.65;;;0.90;99.90;;;;;;5027649;28;20037;-64
2023/01/21 07:35:10;;;;;;;1.10;1.08;;;0.90;99.90;;;;;;5031054;28;20485;-64
2023/01/21 07:37:35;;;;;;;0.22;0.22;;;0.90;99.90;;;;;;5029721;28;20137;-64
2023/01/21 07:40:01;;;;;;;2.30;2.15;;;0.90;99.90;;;;;;5031298;28;20060;-64
2023/01/21 07:42:26;;;;;;;0.95;0.95;;;0.90;99.90;;;;;;5028222;28;20045;-64
2023/01/21 07:44:52;;;;;;;2.97;2.78;;;0.90;99.90;;;;;;5031697;28;20052;-65
2023/01/21 07:47:18;;;;;;;5.25;2.17;;;0.90;99.90;;;;;;5029573;28;20458;-64
2023/01/21 07:49:43;;;;;;;1.50;1.45;;;0.90;99.90;;;;;;5030354;28;20546;-64
2023/01/21 07:52:09;;;;;;;0.10;0.10;;;0.90;99.90;;;;;;5029091;28;20049;-64
2023/01/21 07:54:34;;;;;;;0.25;0.25;;;1.00;99.90;;;;;;5031327;28;20045;-64
2023/01/21 07:57:00;;;;;;;1.02;0.63;;;1.00;99.90;;;;;;5030876;28;20057;-64
2023/01/21 07:59:25;;;;;;;0.30;0.30;;;1.00;99.90;;;;;;5031733;28;20037;-64
2023/01/21 08:01:51;;;;;;;1.00;1.00;;;1.00;99.90;;;;;;5028779;28;20041;-64
2023/01/21 08:04:17;;;;;;;0.55;0.55;;;1.10;99.90;;;;;;5027742;28;20113;-64
2023/01/21 08:06:42;;;;;;;0.45;0.45;;;1.10;99.90;;;;;;5018745;28;20081;-64
2023/01/21 08:09:09;;;;;;;3.83;2.47;;;1.10;99.90;;;;;;5011543;28;20045;-64
2023/01/21 08:11:35;;;;;;;0.63;0.63;;;1.20;99.90;;;;;;5036457;28;20041;-64
2023/01/21 08:14:00;;;;;;;16.00;1.80;;;1.20;99.90;;;;;;5031141;28;20045;-64
2023/01/21 08:16:26;;;;;;;0.35;0.35;;;1.20;99.90;;;;;;5029592;28;20137;-64
2023/01/21 08:18:51;;;;;;;2.28;1.98;;;1.20;99.90;;;;;;5029347;28;20042;-64
2023/01/21 08:21:19;;;;;;;3.20;2.92;;;1.20;99.90;;;;;;5029561;28;20132;-64
2023/01/21 08:23:45;;;;;;;0.32;0.32;;;1.20;99.90;;;;;;5027769;28;20164;-64
2023/01/21 08:26:11;;;;;;;4.70;4.25;;;1.20;99.90;;;;;;5026426;28;20137;-64
2023/01/21 08:28:36;;;;;;;1.10;1.10;;;1.30;99.90;;;;;;5029159;28;20046;-64
2023/01/21 08:31:08;;;;;;;0.52;0.52;;;1.30;99.90;;;;;;5030101;28;20136;-64
2023/01/21 08:33:34;;;;;;;1.00;1.00;;;1.40;99.90;;;;;;5025839;28;20087;-64
2023/01/21 08:36:01;;;;;;;2.47;2.17;;;1.50;99.90;;;;;;5029050;28;20041;-64
2023/01/21 08:38:27;;;;;;;0.22;0.22;;;1.50;99.90;;;;;;5012633;28;20061;-64
2023/01/21 08:40:52;;;;;;;1.75;1.65;;;1.50;99.90;;;;;;5030795;28;20481;-64
2023/01/21 08:43:18;;;;;;;0.73;0.73;;;1.50;99.90;;;;;;5013536;28;20496;-64
2023/01/21 08:45:43;;;;;;;3.35;3.08;;;1.50;99.90;;;;;;5030960;28;20049;-64
2023/01/21 08:48:09;;;;;;;1.02;0.60;;;1.50;99.90;;;;;;5027079;28;20045;-64
2023/01/21 08:50:34;;;;;;;1.75;1.65;;;1.60;99.90;;;;;;5029778;28;20054;-64
2023/01/21 08:53:00;;;;;;;1.42;1.33;;;1.60;99.90;;;;;;5030203;28;20124;-64
2023/01/21 08:55:26;;;;;;;0.50;0.50;;;1.50;99.90;;;;;;5030051;28;20049;-64
2023/01/21 08:57:54;;;;;;;0.90;0.90;;;1.60;99.90;;;;;;5027409;28;20060;-64
2023/01/21 09:00:22;;;;;;;2.25;2.10;;;1.50;99.90;;;;;;5008694;28;20392;-64
2023/01/21 09:02:48;;;;;;;0.20;0.20;;;1.60;99.90;;;;;;5026264;28;20080;-64
2023/01/21 09:05:14;;;;;;;1.35;1.30;;;1.60;99.90;;;;;;5026737;28;21038;-64
2023/01/21 09:07:39;;;;;;;0.77;0.77;;;1.50;99.90;;;;;;5026685;28;20405;-62
2023/01/21 09:10:05;;;;;;;0.28;0.28;;;1.60;99.90;;;;;;5029373;28;20044;-63
2023/01/21 09:12:31;;;;;;;2.20;2.08;;;1.60;99.90;;;;;;5019918;28;20511;-64
2023/01/21 09:14:57;;;;;;;0.85;0.75;;;1.50;99.90;;;;;;5025262;28;20037;-64
2023/01/21 09:17:22;;;;;;;0.43;0.43;;;1.50;99.90;;;;;;5029426;28;20064;-64
2023/01/21 09:19:48;;;;;;;1.10;1.10;;;1.50;99.90;;;;;;5028389;28;20508;-64
2023/01/21 09:22:14;;;;;;;1.95;1.85;;;1.50;99.90;;;;;;5029034;28;20045;-64
2023/01/21 09:24:40;;;;;;;0.65;0.65;;;1.50;99.90;;;;;;5024963;28;20038;-63
2023/01/21 09:27:07;;;;;;;0.25;0.25;;;1.60;99.90;;;;;;5028127;28;20107;-64
2023/01/21 09:29:32;;;;;;;1.40;1.30;;;1.60;99.90;;;;;;5029752;28;20053;-64
2023/01/21 09:31:58;;;;;;;4.22;2.15;;;1.70;99.90;;;;;;5028147;28;20123;-64
2023/01/21 09:34:24;;;;;;;2.85;2.47;;;1.80;99.90;;;;;;5005410;28;20041;-63
2023/01/21 09:36:50;;;;;;;0.65;0.65;;;1.80;99.90;;;;;;5029344;28;20099;-64
2023/01/21 09:39:15;;;;;;;2.35;2.15;;;1.90;99.90;;;;;;5025524;28;20409;-64
2023/01/21 09:41:53;;;;;;;0.65;0.65;;;1.90;99.90;;;;;;5028307;28;20045;-63
2023/01/21 09:44:36;;;;;;;1.73;1.20;;;2.00;99.90;;;;;;5026599;28;20041;-63
2023/01/21 09:47:08;;;;;;;1.33;1.27;;;2.00;99.90;;;;;;5022189;28;20453;-63
2023/01/21 09:49:40;;;;;;;0.73;0.73;;;2.10;99.90;;;;;;5025290;28;20559;-63
2023/01/21 09:52:24;;;;;;;0.25;0.25;;;2.20;99.90;;;;;;5029315;28;20261;-64
2023/01/21 09:54:50;;;;;;;0.20;0.20;;;2.30;99.90;;;;;;5028398;28;20488;-64
2023/01/21 09:57:43;;;;;;;1.20;1.13;;;2.40;99.90;;;;;;5023609;28;20050;-64
2023/01/21 10:00:28;;;;;;;3.92;0.88;;;2.50;99.90;;;;;;5005940;28;20048;-64
2023/01/21 10:03:17;;;;;;;0.40;0.40;;;2.50;99.90;;;;;;5018633;28;20088;-64
2023/01/21 10:06:03;;;;;;;0.40;0.40;;;2.50;99.90;;;;;;5027303;28;20057;-64
2023/01/21 10:09:07;;;;;;;0.20;0.20;;;2.60;99.90;;;;;;5025807;28;20045;-64
2023/01/21 10:11:56;;;;;;;1.02;0.93;;;2.70;99.90;;;;;;5029278;28;20041;-64
2023/01/21 10:14:49;;;;;;;0.45;0.45;;;2.70;99.90;;;;;;5027810;28;20034;-64
2023/01/21 10:17:40;;;;;;;0.20;0.20;;;2.70;99.90;;;;;;5027674;28;20088;-64
2023/01/21 10:20:18;;;;;;;0.40;0.40;;;2.80;99.90;;;;;;5022319;28;20853;-64
2023/01/21 10:23:06;;;;;;;0.32;0.32;;;2.80;99.90;;;;;;5025741;28;20796;-64
2023/01/21 10:25:35;;;;;;;0.47;0.47;;;2.90;99.90;;;;;;5025907;28;20042;-65
2023/01/21 10:28:05;;;;;;;1.55;1.45;;;2.80;99.90;;;;;;5031591;28;20544;-64
2023/01/21 10:30:38;;;;;;;2.50;0.95;;;2.90;99.90;;;;;;5033892;28;20046;-66
2023/01/21 10:33:11;;;;;;;1.20;1.20;;;3.00;99.90;;;;;;5031356;28;20076;-65
2023/01/21 10:35:56;;;;;;;0.35;0.35;;;3.00;99.90;;;;;;5029971;28;20087;-66
2023/01/21 10:38:55;;;;;;;0.98;0.98;;;3.10;99.90;;;;;;5030961;28;20160;-66
2023/01/21 10:41:37;;;;;;;0.25;0.25;;;3.20;99.90;;;;;;5006144;28;20049;-66
2023/01/21 10:44:11;;;;;;;3.70;1.98;;;3.30;99.90;;;;;;5032928;28;20195;-66
2023/01/21 10:46:55;;;;;;;0.65;0.65;;;3.30;99.90;;;;;;5028016;28;20072;-66
2023/01/21 10:49:43;;;;;;;0.20;0.20;;;3.30;99.90;;;;;;5020964;28;20064;-66
2023/01/21 10:52:16;;;;;;;0.43;0.43;;;3.40;99.90;;;;;;5029886;28;20172;-66
2023/01/21 10:55:04;;;;;;;0.77;0.77;;;3.50;99.90;;;;;;5032477;28;20487;-66
2023/01/21 10:58:01;;;;;;;2.33;2.13;;;3.70;99.90;;;;;;5032388;28;20037;-66
2023/01/21 11:00:43;;;;;;;1.38;1.27;;;3.80;99.90;;;;;;5033377;28;20140;-66
2023/01/21 11:03:33;;;;;;;1.05;1.05;;;3.80;99.90;;;;;;5031639;28;20044;-65
2023/01/21 11:06:00;;;;;;;0.30;0.30;;;3.90;99.90;;;;;;5032012;28;20050;-66
2023/01/21 11:08:27;;;;;;;0.63;0.63;;;4.00;99.90;;;;;;5030689;28;20511;-66
2023/01/21 11:10:56;;;;;;;1.75;1.65;;;4.10;99.90;;;;;;5005336;28;20147;-66
2023/01/21 11:13:22;;;;;;;0.32;0.32;;;4.10;99.90;;;;;;5027544;28;20050;-66
2023/01/21 11:15:55;;;;;;;0.57;0.57;;;4.10;99.90;;;;;;5032639;28;20392;-66
2023/01/21 11:18:29;;;;;;;0.10;0.10;;;4.30;99.90;;;;;;5031072;28;20049;-66
2023/01/21 11:21:01;;;;;;;0.80;0.77;;;4.30;99.90;;;;;;5025615;28;20074;-66
2023/01/21 11:23:31;;;;;;;0.40;0.40;;;4.40;99.90;;;;;;5031720;28;20528;-66
2023/01/21 11:26:22;;;;;;;0.50;0.50;;;4.40;99.90;;;;;;5029647;28;20536;-66
2023/01/21 11:28:47;;;;;;;0.32;0.32;;;4.50;99.90;;;;;;5030032;28;20561;-66
2023/01/21 11:31:20;;;;;;;0.28;0.28;;;4.50;99.90;;;;;;5029810;28;20046;-66
2023/01/21 11:33:46;;;;;;;0.30;0.30;;;4.60;99.90;;;;;;5030055;28;21756;-66
2023/01/21 11:36:18;;;;;;;1.75;1.65;;;4.70;99.90;;;;;;5028605;28;20096;-66
2023/01/21 11:38:46;;;;;;;0.43;0.43;;;4.80;99.90;;;;;;5012539;28;20061;-66
2023/01/21 11:41:12;;;;;;;1.08;1.08;;;4.80;99.90;;;;;;5005892;28;20391;-66
2023/01/21 11:43:48;;;;;;;0.20;0.20;;;4.90;99.90;;;;;;5032055;28;20057;-66
2023/01/21 11:46:40;;;;;;;0.75;0.30;;;5.00;99.90;;;;;;5029113;28;20091;-66
2023/01/21 11:49:06;;;;;;;0.68;0.68;;;5.30;99.90;;;;;;5024530;28;20084;-66
2023/01/21 11:51:35;;;;;;;0.10;0.10;;;5.40;99.90;;;;;;5031261;28;20073;-66
2023/01/21 11:54:13;;;;;;;0.55;0.55;;;5.50;99.90;;;;;;5021499;28;20133;-66
2023/01/21 11:57:00;;;;;;;0.38;0.38;;;5.70;99.90;;;;;;5020975;28;20049;-66
2023/01/21 11:59:33;;;;;;;1.02;0.50;;;5.90;99.90;;;;;;5027129;28;20077;-66
2023/01/21 12:02:11;;;;;;;0.10;0.10;;;6.10;99.90;;;;;;5032291;28;20045;-66
2023/01/21 12:04:41;;;;;;;0.50;0.50;;;6.20;99.90;;;;;;5028718;28;20519;-66
2023/01/21 12:07:21;;;;;;;0.85;0.85;;;6.30;99.90;;;;;;5027907;28;20072;-66
2023/01/21 12:10:20;;;;;;;0.75;0.75;;;6.50;99.90;;;;;;5031951;28;20045;-66
2023/01/21 12:12:52;;;;;;;0.75;0.75;;;6.70;99.90;;;;;;4981979;28;20061;-66
2023/01/21 12:15:47;;;;;;;0.10;0.10;;;6.90;99.90;;;;;;5012449;28;20057;-66
2023/01/21 12:18:35;;;;;;;0.10;0.10;;;7.10;99.90;;;;;;5030212;28;20045;-66
2023/01/21 12:21:18;;;;;;;0.47;0.47;;;7.30;99.90;;;;;;5029601;28;20033;-66
2023/01/21 12:24:12;;;;;;;4.78;0.75;;;7.60;99.90;;;;;;5030006;28;20045;-66
2023/01/21 12:26:52;;;;;;;0.38;0.38;;;7.70;99.90;;;;;;5016573;28;20480;-66
2023/01/21 12:29:51;;;;;;;1.02;0.95;;;7.70;99.90;;;;;;5030511;28;20037;-66
2023/01/21 12:32:30;;;;;;;0.10;0.10;;;7.50;99.90;;;;;;5006102;28;20073;-65
2023/01/21 12:35:23;;;;;;;2.10;1.33;;;7.70;99.90;;;;;;5024183;28;20416;-67
2023/01/21 12:37:54;;;;;;;0.52;0.52;;;7.60;99.90;;;;;;5020222;28;20095;-67
2023/01/21 12:40:38;;;;;;;1.10;1.05;;;7.50;99.90;;;;;;5025552;28;20037;-67
2023/01/21 12:43:19;;;;;;;0.10;0.10;;;7.30;99.90;;;;;;5022270;28;20454;-66
2023/01/21 12:45:54;;;;;;;0.50;0.50;;;7.30;99.90;;;;;;5027495;28;20051;-66
2023/01/21 12:48:28;;;;;;;0.10;0.10;;;7.20;99.90;;;;;;5027457;28;20033;-66
2023/01/21 12:51:28;;;;;;;0.47;0.47;;;7.30;99.90;;;;;;5026703;28;20988;-66
2023/01/21 12:54:04;;;;;;;6.03;1.60;;;7.10;99.90;;;;;;4953776;28;20050;-66
2023/01/21 12:56:50;;;;;;;0.20;0.20;;;7.10;99.90;;;;;;5005654;28;20077;-66
2023/01/21 12:59:23;;;;;;;0.10;0.10;;;7.30;99.90;;;;;;5026554;28;20056;-66
2023/01/21 13:02:04;;;;;;;0.30;0.30;;;7.50;99.90;;;;;;5027077;28;20041;-66
2023/01/21 13:04:48;;;;;;;0.80;0.80;;;7.70;99.90;;;;;;5027869;28;20045;-66
2023/01/21 13:07:38;;;;;;;0.50;0.50;;;8.00;99.90;;;;;;5027629;28;20443;-66
2023/01/21 13:10:27;;;;;;;1.35;1.17;;;8.20;99.90;;;;;;5022707;28;20076;-66
2023/01/21 13:13:01;;;;;;;1.25;0.95;;;8.30;99.90;;;;;;5027415;28;20038;-66
2023/01/21 13:15:29;;;;;;;;;;;8.50;99.90;;;;;;5023973;28;20049;-66
2023/01/21 13:17:58;;;;;;;0.15;0.15;;;8.70;99.90;;;;;;5025357;28;19933;-66
2023/01/21 13:20:24;;;;;;;1.08;1.08;;;9.00;99.90;;;;;;5026351;28;20060;-67
2023/01/21 13:23:16;;;;;;;0.22;0.22;;;8.80;99.90;;;;;;5025470;28;20562;-67